createdAt,value
2023-02-11T00:01:31.253Z,99.90
2023-02-11T00:04:00.188Z,99.90
2023-02-11T00:06:30.500Z,99.90
2023-02-11T00:08:58.557Z,99.90
2023-02-11T00:11:30.937Z,99.90
2023-02-11T00:14:01.740Z,99.90
2023-02-11T00:16:32.236Z,99.90
2023-02-11T00:19:01.454Z,99.90
2023-02-11T00:21:29.587Z,99.90
2023-02-11T00:24:00.268Z,99.90
2023-02-11T00:26:31.932Z,99.90
2023-02-11T00:29:01.148Z,99.90
2023-02-11T00:31:29.759Z,99.90
2023-02-11T00:33:58.246Z,99.90
2023-02-11T00:36:29.256Z,99.90
2023-02-11T00:38:58.503Z,99.90
2023-02-11T00:41:27.683Z,99.90
2023-02-11T00:43:55.878Z,99.90
2023-02-11T00:46:24.444Z,99.90
2023-02-11T00:48:55.283Z,99.90
2023-02-11T00:51:23.460Z,99.90
2023-02-11T00:53:51.793Z,99.90
2023-02-11T00:56:20.423Z,99.90
2023-02-11T00:58:48.696Z,99.90
2023-02-11T01:01:18.255Z,99.90
2023-02-11T01:03:46.191Z,99.90
2023-02-11T01:06:14.535Z,99.90
2023-02-11T01:08:42.440Z,99.90
2023-02-11T01:11:18.121Z,99.90
2023-02-11T01:13:47.525Z,99.90
2023-02-11T01:16:17.375Z,99.90
2023-02-11T01:18:46.623Z,99.90
2023-02-11T01:21:15.412Z,99.90
2023-02-11T01:23:44.209Z,99.90
2023-02-11T01:26:13.270Z,99.90
2023-02-11T01:28:41.163Z,99.90
2023-02-11T01:31:09.221Z,99.90
2023-02-11T01:33:37.644Z,99.90
2023-02-11T01:36:08.267Z,99.90
2023-02-11T01:38:36.829Z,99.90
2023-02-11T01:41:10.665Z,99.90
2023-02-11T01:43:50.285Z,99.90
2023-02-11T01:46:25.300Z,99.90
2023-02-11T01:49:12.158Z,99.90
2023-02-11T01:51:48.972Z,99.90
2023-02-11T01:54:39.122Z,99.90
2023-02-11T01:57:23.601Z,99.90
2023-02-11T02:00:07.538Z,99.90
2023-02-11T02:03:03.467Z,99.90
2023-02-11T02:05:47.005Z,99.90
2023-02-11T02:08:32.438Z,99.90
2023-02-11T02:11:04.023Z,99.90
2023-02-11T02:13:34.151Z,99.90
2023-02-11T02:16:09.946Z,99.90
2023-02-11T02:18:43.768Z,99.90
2023-02-11T02:21:36.433Z,99.90
2023-02-11T02:24:22.541Z,99.90
2023-02-11T02:27:14.656Z,99.90
2023-02-11T02:30:39.538Z,99.90
2023-02-11T02:33:22.488Z,99.90
2023-02-11T02:36:12.066Z,99.90
2023-02-11T02:38:54.985Z,99.90
2023-02-11T02:41:33.979Z,99.90
2023-02-11T02:44:02.873Z,99.90
2023-02-11T02:46:34.101Z,99.90
2023-02-11T02:49:03.360Z,99.90
2023-02-11T02:51:57.076Z,99.90
2023-02-11T02:54:46.063Z,99.90
2023-02-11T02:57:46.603Z,99.90
2023-02-11T03:00:35.206Z,99.90
2023-02-11T03:03:49.821Z,99.90
2023-02-11T03:06:34.915Z,99.90
2023-02-11T03:09:12.203Z,99.90
2023-02-11T03:11:41.362Z,99.90
2023-02-11T03:14:16.053Z,99.90
2023-02-11T03:16:46.319Z,99.90
2023-02-11T03:19:20.515Z,99.90
2023-02-11T03:21:52.596Z,99.90
2023-02-11T03:24:30.403Z,99.90
2023-02-11T03:27:04.509Z,99.90
2023-02-11T03:29:41.050Z,99.90
2023-02-11T03:32:18.365Z,99.90
2023-02-11T03:35:04.252Z,99.90
2023-02-11T03:37:38.065Z,99.90
2023-02-11T03:40:19.570Z,99.90
2023-02-11T03:42:55.705Z,99.90
2023-02-11T03:45:25.859Z,99.90
2023-02-11T03:48:20.668Z,99.90
2023-02-11T03:50:50.831Z,99.90
2023-02-11T03:53:20.348Z,99.90
2023-02-11T03:55:50.646Z,99.90
2023-02-11T03:58:19.332Z,99.90
2023-02-11T04:00:47.498Z,99.90
2023-02-11T04:03:15.589Z,99.90
2023-02-11T04:05:43.565Z,99.90
2023-02-11T04:08:11.583Z,99.90
2023-02-11T04:10:39.566Z,99.90
2023-02-11T04:13:07.627Z,99.90
2023-02-11T04:15:35.645Z,99.90
2023-02-11T04:18:03.944Z,99.90
2023-02-11T04:20:31.748Z,99.90
2023-02-11T04:22:59.690Z,99.90
2023-02-11T04:25:28.044Z,99.90
2023-02-11T04:27:56.001Z,99.90
2023-02-11T04:30:23.902Z,99.90
2023-02-11T04:32:51.916Z,99.90
2023-02-11T04:35:19.776Z,99.90
2023-02-11T04:37:48.195Z,99.90
2023-02-11T04:40:16.080Z,99.90
2023-02-11T04:42:44.043Z,99.90
2023-02-11T04:45:11.820Z,99.90
2023-02-11T04:47:39.952Z,99.90
2023-02-11T04:50:07.790Z,99.90
2023-02-11T04:52:36.016Z,99.90
2023-02-11T04:55:03.837Z,99.90
2023-02-11T04:57:31.670Z,99.90
2023-02-11T04:59:59.697Z,99.90
2023-02-11T05:02:27.832Z,99.90
2023-02-11T05:04:55.761Z,99.90
2023-02-11T05:07:23.788Z,99.90
2023-02-11T05:09:51.760Z,99.90
2023-02-11T05:12:19.862Z,99.90
2023-02-11T05:14:47.895Z,99.90
2023-02-11T05:17:15.976Z,99.90
2023-02-11T05:19:44.125Z,99.90
2023-02-11T05:22:12.042Z,99.90
2023-02-11T05:24:40.146Z,99.90
2023-02-11T05:27:07.923Z,99.90
2023-02-11T05:29:35.935Z,99.90
2023-02-11T05:32:03.936Z,99.90
2023-02-11T05:34:32.030Z,99.90
2023-02-11T05:37:00.027Z,99.90
2023-02-11T05:39:29.688Z,99.90
2023-02-11T05:41:57.727Z,99.90
2023-02-11T05:44:25.959Z,99.90
2023-02-11T05:46:53.842Z,99.90
2023-02-11T05:49:21.813Z,99.90
2023-02-11T05:51:50.100Z,99.90
2023-02-11T05:54:18.176Z,99.90
2023-02-11T05:56:46.060Z,99.90
2023-02-11T05:59:19.716Z,99.90
2023-02-11T06:01:47.664Z,99.90
2023-02-11T06:04:15.421Z,99.90
2023-02-11T06:06:43.282Z,99.90
2023-02-11T06:09:12.458Z,99.90
2023-02-11T06:11:40.477Z,99.90
2023-02-11T06:14:08.380Z,99.90
2023-02-11T06:16:36.439Z,99.90
2023-02-11T06:19:04.505Z,99.90
2023-02-11T06:21:43.330Z,99.90
2023-02-11T06:24:13.030Z,99.90
2023-02-11T06:26:41.132Z,99.90
2023-02-11T06:29:09.287Z,99.90
2023-02-11T06:31:39.502Z,99.90
2023-02-11T06:34:09.168Z,99.90
2023-02-11T06:36:39.896Z,99.90
2023-02-11T06:39:08.331Z,99.90
2023-02-11T06:41:38.459Z,99.90
2023-02-11T06:44:06.553Z,99.90
2023-02-11T06:46:34.498Z,99.90
2023-02-11T06:49:02.886Z,99.90
2023-02-11T06:51:30.717Z,99.90
2023-02-11T06:53:58.535Z,99.90
2023-02-11T06:56:29.254Z,99.90
2023-02-11T06:58:57.895Z,99.90
2023-02-11T07:01:27.368Z,99.90
2023-02-11T07:03:55.823Z,99.90
2023-02-11T07:06:27.667Z,99.90
2023-02-11T07:08:56.495Z,99.90
2023-02-11T07:11:28.025Z,99.90
2023-02-11T07:14:00.227Z,99.90
2023-02-11T07:16:28.350Z,99.90
2023-02-11T07:18:56.162Z,99.90
2023-02-11T07:21:27.713Z,99.90
2023-02-11T07:23:56.014Z,99.90
2023-02-11T07:26:26.211Z,99.90
2023-02-11T07:28:55.188Z,99.90
2023-02-11T07:31:26.146Z,99.90
2023-02-11T07:33:56.229Z,99.90
2023-02-11T07:36:24.629Z,99.90
2023-02-11T07:38:52.656Z,99.90
2023-02-11T07:41:23.016Z,99.90
2023-02-11T07:43:51.398Z,99.90
2023-02-11T07:46:24.805Z,99.90
2023-02-11T07:48:53.673Z,99.90
2023-02-11T07:51:27.032Z,99.90
2023-02-11T07:53:56.092Z,99.70
2023-02-11T07:56:24.365Z,99.60
2023-02-11T07:58:52.188Z,99.50
2023-02-11T08:01:25.632Z,99.40
2023-02-11T08:03:54.312Z,98.80
2023-02-11T08:06:24.632Z,98.80
2023-02-11T08:08:53.238Z,98.10
2023-02-11T08:11:24.229Z,97.80
2023-02-11T08:13:52.959Z,97.40
2023-02-11T08:16:26.721Z,96.90
2023-02-11T08:18:57.998Z,96.80
2023-02-11T08:21:26.612Z,96.50
2023-02-11T08:23:54.718Z,96.00
2023-02-11T08:26:30.633Z,95.70
2023-02-11T08:28:59.113Z,95.10
2023-02-11T08:31:34.752Z,95.20
2023-02-11T08:34:03.199Z,94.80
2023-02-11T08:36:34.647Z,94.20
2023-02-11T08:39:17.906Z,93.60
2023-02-11T08:41:51.936Z,93.60
2023-02-11T08:44:21.755Z,93.20
2023-02-11T08:46:50.584Z,93.20
2023-02-11T08:49:18.796Z,93.00
2023-02-11T08:51:47.469Z,93.10
2023-02-11T08:54:16.749Z,93.90
2023-02-11T08:56:45.119Z,93.50
2023-02-11T08:59:18.110Z,93.50
2023-02-11T09:01:47.755Z,91.40
2023-02-11T09:04:15.817Z,89.80
2023-02-11T09:06:43.757Z,87.50
2023-02-11T09:09:14.233Z,85.20
2023-02-11T09:11:44.023Z,83.60
2023-02-11T09:14:23.773Z,83.20
2023-02-11T09:16:53.680Z,81.10
2023-02-11T09:19:23.558Z,80.30
2023-02-11T09:21:51.632Z,80.70
2023-02-11T09:24:19.744Z,81.20
2023-02-11T09:26:47.987Z,80.90
2023-02-11T09:29:15.755Z,77.40
2023-02-11T09:31:44.047Z,78.10
2023-02-11T09:34:13.032Z,76.80
2023-02-11T09:36:42.236Z,74.90
2023-02-11T09:39:14.157Z,73.70
2023-02-11T09:42:09.152Z,71.30
2023-02-11T09:44:41.054Z,71.20
2023-02-11T09:47:29.616Z,71.80
2023-02-11T09:50:13.868Z,69.90
2023-02-11T09:53:05.962Z,70.50
2023-02-11T09:55:47.030Z,70.10
2023-02-11T09:58:21.672Z,67.80
2023-02-11T10:00:52.801Z,66.70
2023-02-11T10:03:49.846Z,68.40
2023-02-11T10:06:39.069Z,68.90
2023-02-11T10:09:07.257Z,70.20
2023-02-11T10:11:37.798Z,72.80
2023-02-11T10:14:08.859Z,74.20
2023-02-11T10:16:55.071Z,74.60
2023-02-11T10:19:34.854Z,71.70
2023-02-11T10:22:08.707Z,73.80
2023-02-11T10:24:38.026Z,75.70
2023-02-11T10:27:19.955Z,77.30
2023-02-11T10:29:57.527Z,79.70
2023-02-11T10:32:38.471Z,78.60
2023-02-11T10:35:18.766Z,76.40
2023-02-11T10:37:47.011Z,78.70
2023-02-11T10:40:21.929Z,79.60
2023-02-11T10:42:55.551Z,80.80
2023-02-11T10:45:44.816Z,80.80
2023-02-11T10:48:47.048Z,78.90
2023-02-11T10:51:21.817Z,77.80
2023-02-11T10:54:19.991Z,79.80
2023-02-11T10:56:59.655Z,80.40
2023-02-11T10:59:28.278Z,81.40
2023-02-11T11:02:02.568Z,82.90
2023-02-11T11:04:46.588Z,84.30
2023-02-11T11:07:17.831Z,82.40
2023-02-11T11:09:55.943Z,82.60
2023-02-11T11:12:48.037Z,82.40
2023-02-11T11:15:29.114Z,83.00
2023-02-11T11:18:24.064Z,85.70
2023-02-11T11:21:01.745Z,81.00
2023-02-11T11:23:37.293Z,81.80
2023-02-11T11:26:16.040Z,81.10
2023-02-11T11:28:59.521Z,82.00
2023-02-11T11:31:49.327Z,83.40
2023-02-11T11:34:27.933Z,87.30
2023-02-11T11:36:58.663Z,88.80
2023-02-11T11:39:32.706Z,89.80
2023-02-11T11:42:06.274Z,88.00
2023-02-11T11:44:40.347Z,90.00
2023-02-11T11:47:23.214Z,90.20
2023-02-11T11:50:04.288Z,91.20
2023-02-11T11:52:46.683Z,92.30
2023-02-11T11:55:39.896Z,93.00
2023-02-11T11:58:19.645Z,92.50
2023-02-11T12:01:30.216Z,93.00
2023-02-11T12:04:19.803Z,93.60
2023-02-11T12:06:59.894Z,94.40
2023-02-11T12:09:33.313Z,93.20
2023-02-11T12:12:16.469Z,93.70
2023-02-11T12:15:00.344Z,93.90
2023-02-11T12:17:49.269Z,94.40
2023-02-11T12:20:26.527Z,95.00
2023-02-11T12:23:21.921Z,95.30
2023-02-11T12:26:05.260Z,96.00
2023-02-11T12:29:01.213Z,96.20
2023-02-11T12:31:56.319Z,95.90
2023-02-11T12:34:27.031Z,95.70
2023-02-11T12:37:25.562Z,96.20
2023-02-11T12:40:35.136Z,96.00
2023-02-11T12:43:18.034Z,95.90
2023-02-11T12:45:58.784Z,96.30
2023-02-11T12:48:54.820Z,96.50
2023-02-11T12:51:32.661Z,96.30
2023-02-11T12:54:26.205Z,95.70
2023-02-11T12:57:02.943Z,96.00
2023-02-11T12:59:38.963Z,96.00
2023-02-11T13:02:20.993Z,95.80
2023-02-11T13:04:54.604Z,95.70
2023-02-11T13:07:35.426Z,95.60
2023-02-11T13:10:16.012Z,95.80
2023-02-11T13:13:07.922Z,95.50
2023-02-11T13:15:36.288Z,94.40
2023-02-11T13:18:35.955Z,94.30
2023-02-11T13:21:15.911Z,94.10
2023-02-11T13:24:24.981Z,91.30
2023-02-11T13:27:23.412Z,80.40
2023-02-11T13:30:25.551Z,71.00
2023-02-11T13:32:56.433Z,64.70
2023-02-11T13:35:37.932Z,57.70
2023-02-11T13:38:18.532Z,58.00
2023-02-11T13:40:58.163Z,56.30
2023-02-11T13:43:29.106Z,54.10
2023-02-11T13:46:23.292Z,52.90
2023-02-11T13:48:53.601Z,53.70
2023-02-11T13:51:48.703Z,56.80
2023-02-11T13:54:53.154Z,62.00
2023-02-11T13:57:21.106Z,63.70
2023-02-11T13:59:52.477Z,65.10
2023-02-11T14:02:55.058Z,67.40
2023-02-11T14:05:50.428Z,68.30
2023-02-11T14:08:44.150Z,71.10
2023-02-11T14:11:33.685Z,71.40
2023-02-11T14:14:15.214Z,73.60
2023-02-11T14:17:07.160Z,75.90
2023-02-11T14:19:35.433Z,78.50
2023-02-11T14:22:19.328Z,79.40
2023-02-11T14:25:03.078Z,82.00
2023-02-11T14:27:47.253Z,82.30
2023-02-11T14:30:51.391Z,83.90
2023-02-11T14:34:01.565Z,85.30
2023-02-11T14:36:55.623Z,86.30
2023-02-11T14:39:45.656Z,88.50
2023-02-11T14:42:23.217Z,88.50
2023-02-11T14:44:53.327Z,88.60
2023-02-11T14:47:36.433Z,89.20
2023-02-11T14:50:07.854Z,90.30
2023-02-11T14:52:39.274Z,90.30
2023-02-11T14:55:13.575Z,90.50
2023-02-11T14:57:45.187Z,90.10
2023-02-11T15:00:22.766Z,90.40
2023-02-11T15:02:51.093Z,90.60
2023-02-11T15:05:22.893Z,91.00
2023-02-11T15:07:54.998Z,91.10
2023-02-11T15:10:44.106Z,91.50
2023-02-11T15:13:21.624Z,91.40
2023-02-11T15:15:52.862Z,91.20
2023-02-11T15:18:25.559Z,91.60
2023-02-11T15:20:54.055Z,91.40
2023-02-11T15:23:27.805Z,91.40
2023-02-11T15:26:03.375Z,91.00
2023-02-11T15:28:36.076Z,90.30
2023-02-11T15:31:16.293Z,89.80
2023-02-11T15:33:44.969Z,83.70
2023-02-11T15:36:14.095Z,82.10
2023-02-11T15:38:42.615Z,80.10
2023-02-11T15:41:35.914Z,75.30
2023-02-11T15:44:04.791Z,73.90
2023-02-11T15:46:40.447Z,72.40
2023-02-11T15:49:19.746Z,71.20
2023-02-11T15:51:48.179Z,70.20
2023-02-11T15:54:22.851Z,70.40
2023-02-11T15:56:55.776Z,69.60
2023-02-11T15:59:41.466Z,70.30
2023-02-11T16:02:22.528Z,71.20
2023-02-11T16:05:10.183Z,73.10
2023-02-11T16:07:43.528Z,73.00
2023-02-11T16:10:25.148Z,73.60
2023-02-11T16:13:02.136Z,74.20
2023-02-11T16:15:42.637Z,75.20
2023-02-11T16:18:37.655Z,76.40
2023-02-11T16:21:17.370Z,78.30
2023-02-11T16:23:58.021Z,80.40
2023-02-11T16:26:29.547Z,83.90
2023-02-11T16:29:12.071Z,86.70
2023-02-11T16:31:43.598Z,89.30
2023-02-11T16:34:25.339Z,90.90
2023-02-11T16:36:54.002Z,92.00
2023-02-11T16:39:22.738Z,92.90
2023-02-11T16:41:52.194Z,93.80
2023-02-11T16:44:20.857Z,94.60
2023-02-11T16:46:49.283Z,95.50
2023-02-11T16:49:31.770Z,96.20
2023-02-11T16:52:02.781Z,96.70
2023-02-11T16:54:31.453Z,97.50
2023-02-11T16:56:59.361Z,98.00
2023-02-11T16:59:27.359Z,98.50
2023-02-11T17:01:55.856Z,99.10
2023-02-11T17:04:28.706Z,99.30
2023-02-11T17:06:58.496Z,99.40
2023-02-11T17:09:30.831Z,99.60
2023-02-11T17:11:59.474Z,99.90
2023-02-11T17:14:27.307Z,99.90
2023-02-11T17:16:55.482Z,99.90
2023-02-11T17:19:23.360Z,99.90
2023-02-11T17:21:53.702Z,99.90
2023-02-11T17:24:22.933Z,99.90
2023-02-11T17:26:51.485Z,99.90
2023-02-11T17:29:22.392Z,99.90
2023-02-11T17:31:52.405Z,99.90
2023-02-11T17:34:21.970Z,99.90
2023-02-11T17:36:51.022Z,99.90
2023-02-11T17:39:21.402Z,99.90
2023-02-11T17:41:49.423Z,99.90
2023-02-11T17:44:17.452Z,99.90
2023-02-11T17:46:45.607Z,99.90
2023-02-11T17:49:13.444Z,99.90
2023-02-11T17:51:41.620Z,99.90
2023-02-11T17:54:17.286Z,99.90
2023-02-11T17:56:49.330Z,99.90
2023-02-11T17:59:18.547Z,99.90
2023-02-11T18:01:47.616Z,99.90
2023-02-11T18:04:19.327Z,99.90
2023-02-11T18:06:47.899Z,99.90
2023-02-11T18:09:15.755Z,99.90
2023-02-11T18:11:43.885Z,99.90
2023-02-11T18:14:12.474Z,99.90
2023-02-11T18:16:43.399Z,99.90
2023-02-11T18:19:12.785Z,99.90
2023-02-11T18:21:41.294Z,99.90
2023-02-11T18:24:09.317Z,99.90
2023-02-11T18:26:37.554Z,99.90
2023-02-11T18:29:07.296Z,99.90
2023-02-11T18:31:36.789Z,99.90
2023-02-11T18:34:07.918Z,99.90
2023-02-11T18:36:36.283Z,99.90
2023-02-11T18:39:06.145Z,99.90
2023-02-11T18:41:34.639Z,99.90
2023-02-11T18:44:03.538Z,99.90
2023-02-11T18:46:31.896Z,99.90
2023-02-11T18:48:59.925Z,99.90
2023-02-11T18:51:28.433Z,99.90
2023-02-11T18:53:56.416Z,99.90
2023-02-11T18:56:26.469Z,99.90
2023-02-11T18:58:56.491Z,99.90
2023-02-11T19:01:27.959Z,99.90
2023-02-11T19:03:57.799Z,99.90
2023-02-11T19:06:28.311Z,99.90
2023-02-11T19:09:00.043Z,99.90
2023-02-11T19:11:52.894Z,99.90
2023-02-11T19:14:26.222Z,99.90
2023-02-11T19:16:57.520Z,99.90
2023-02-11T19:19:28.671Z,99.90
2023-02-11T19:21:58.489Z,99.90
2023-02-11T19:24:27.336Z,99.90
2023-02-11T19:26:59.077Z,99.90
2023-02-11T19:29:27.462Z,99.90
2023-02-11T19:31:56.093Z,99.90
2023-02-11T19:34:24.749Z,99.90
2023-02-11T19:36:54.511Z,99.90
2023-02-11T19:39:25.086Z,99.90
2023-02-11T19:41:54.286Z,99.90
2023-02-11T19:44:22.296Z,99.90
2023-02-11T19:46:53.638Z,99.90
2023-02-11T19:49:26.247Z,99.90
2023-02-11T19:51:58.073Z,99.90
2023-02-11T19:54:27.342Z,99.90
2023-02-11T19:56:55.453Z,99.90
2023-02-11T19:59:24.140Z,99.90
2023-02-11T20:01:53.509Z,99.90
2023-02-11T20:04:21.855Z,99.90
2023-02-11T20:06:49.954Z,99.90
2023-02-11T20:09:17.913Z,99.90
2023-02-11T20:11:45.679Z,99.90
2023-02-11T20:14:15.647Z,99.90
2023-02-11T20:16:48.755Z,99.90
2023-02-11T20:19:20.437Z,99.90
2023-02-11T20:21:52.319Z,99.90
2023-02-11T20:24:21.126Z,99.90
2023-02-11T20:26:49.616Z,99.90
2023-02-11T20:29:18.898Z,99.90
2023-02-11T20:31:47.132Z,99.90
2023-02-11T20:34:17.377Z,99.90
2023-02-11T20:36:52.446Z,99.90
2023-02-11T20:39:22.682Z,99.90
2023-02-11T20:41:51.682Z,99.90
2023-02-11T20:44:23.450Z,99.90
2023-02-11T20:46:54.622Z,99.90
2023-02-11T20:49:24.918Z,99.90
2023-02-11T20:51:54.353Z,99.90
2023-02-11T20:54:24.284Z,99.90
2023-02-11T20:56:54.220Z,99.90
2023-02-11T20:59:23.162Z,99.90
2023-02-11T21:01:55.996Z,99.90
2023-02-11T21:04:30.194Z,99.90
2023-02-11T21:07:00.994Z,99.90
2023-02-11T21:09:32.538Z,99.90
2023-02-11T21:12:01.074Z,99.90
2023-02-11T21:14:29.742Z,99.90
2023-02-11T21:16:58.583Z,99.90
2023-02-11T21:19:27.068Z,99.90
2023-02-11T21:21:57.589Z,99.90
2023-02-11T21:24:25.885Z,99.90
2023-02-11T21:26:54.061Z,99.90
2023-02-11T21:29:22.091Z,99.90
2023-02-11T21:31:50.135Z,99.90
2023-02-11T21:34:18.397Z,99.90
2023-02-11T21:36:46.728Z,99.90
2023-02-11T21:39:14.965Z,99.90
2023-02-11T21:41:43.003Z,99.90
2023-02-11T21:44:10.980Z,99.90
2023-02-11T21:46:38.961Z,99.90
2023-02-11T21:49:07.051Z,99.90
2023-02-11T21:51:35.036Z,99.90
2023-02-11T21:54:06.642Z,99.90
2023-02-11T21:56:36.016Z,99.90
2023-02-11T21:59:04.335Z,99.90
2023-02-11T22:01:35.790Z,99.90
2023-02-11T22:04:04.133Z,99.90
2023-02-11T22:06:34.650Z,99.90
2023-02-11T22:09:07.595Z,99.90
2023-02-11T22:11:35.999Z,99.90
2023-02-11T22:14:04.385Z,99.90
2023-02-11T22:16:33.231Z,99.90
2023-02-11T22:19:02.909Z,99.90
2023-02-11T22:21:31.203Z,99.90
2023-02-11T22:23:59.225Z,99.90
2023-02-11T22:26:28.779Z,99.90
2023-02-11T22:28:57.225Z,99.90
2023-02-11T22:31:29.028Z,99.90
2023-02-11T22:33:57.563Z,99.90
2023-02-11T22:36:28.643Z,99.90
2023-02-11T22:39:00.329Z,99.90
2023-02-11T22:41:29.301Z,99.90
2023-02-11T22:43:57.377Z,99.90
2023-02-11T22:46:26.385Z,99.90
2023-02-11T22:48:54.431Z,99.90
2023-02-11T22:51:25.493Z,99.90
2023-02-11T22:53:55.902Z,99.90
2023-02-11T22:56:24.156Z,99.90
2023-02-11T22:58:53.615Z,99.90
2023-02-11T23:01:21.741Z,99.90
2023-02-11T23:03:49.617Z,99.90
2023-02-11T23:06:18.291Z,99.90
2023-02-11T23:08:46.728Z,99.90
2023-02-11T23:11:21.007Z,99.90
2023-02-11T23:13:50.964Z,99.90
2023-02-11T23:16:24.789Z,99.90
2023-02-11T23:18:55.352Z,99.90
2023-02-11T23:21:26.460Z,99.90
2023-02-11T23:23:56.668Z,99.90
2023-02-11T23:26:25.183Z,99.90
2023-02-11T23:28:53.433Z,99.90
2023-02-11T23:31:24.823Z,99.90
2023-02-11T23:33:53.727Z,99.90
2023-02-11T23:36:22.878Z,99.90
2023-02-11T23:38:51.901Z,99.90
2023-02-11T23:41:20.873Z,99.90
2023-02-11T23:43:54.964Z,99.90
2023-02-11T23:46:24.305Z,99.90
2023-02-11T23:48:52.933Z,99.90
2023-02-11T23:51:22.281Z,99.90
2023-02-11T23:53:51.224Z,99.90
2023-02-11T23:56:23.269Z,99.90
2023-02-11T23:58:53.835Z,99.90
